sensor_id;sensor_type;location;lat;lon;timestamp;P1;durP1;ratioP1;P2;durP2;ratioP2
11111;SDS011;5609;49.466;8.468;2023-03-21T00:02:15;3.17;;;2.40;;
11111;SDS011;5609;49.466;8.468;2023-03-21T00:04:42;3.53;;;2.43;;
11111;SDS011;5609;49.466;8.468;2023-03-21T00:07:08;3.27;;;2.53;;
11111;SDS011;5609;49.466;8.468;2023-03-21T00:09:36;3.93;;;2.57;;
11111;SDS011;5609;49.466;8.468;2023-03-21T00:12:03;2.63;;;2.23;;
11111;SDS011;5609;49.466;8.468;2023-03-21T00:14:31;3.73;;;2.30;;
11111;SDS011;5609;49.466;8.468;2023-03-21T00:16:58;3.50;;;2.70;;
11111;SDS011;5609;49.466;8.468;2023-03-21T00:19:25;3.33;;;2.40;;
11111;SDS011;5609;49.466;8.468;2023-03-21T00:21:53;5.30;;;2.87;;
11111;SDS011;5609;49.466;8.468;2023-03-21T00:24:19;3.10;;;2.60;;
11111;SDS011;5609;49.466;8.468;2023-03-21T00:26:48;3.60;;;2.70;;
11111;SDS011;5609;49.466;8.468;2023-03-21T00:29:15;4.13;;;2.70;;
11111;SDS011;5609;49.466;8.468;2023-03-21T00:31:42;4.37;;;2.90;;
11111;SDS011;5609;49.466;8.468;2023-03-21T00:34:09;3.67;;;3.00;;
11111;SDS011;5609;49.466;8.468;2023-03-21T00:36:36;3.20;;;2.57;;
11111;SDS011;5609;49.466;8.468;2023-03-21T00:39:02;3.57;;;2.90;;
11111;SDS011;5609;49.466;8.468;2023-03-21T00:41:30;3.20;;;2.80;;
11111;SDS011;5609;49.466;8.468;2023-03-21T00:43:58;4.43;;;2.70;;
11111;SDS011;5609;49.466;8.468;2023-03-21T00:46:25;5.20;;;2.80;;
11111;SDS011;5609;49.466;8.468;2023-03-21T00:48:52;4.63;;;2.90;;
11111;SDS011;5609;49.466;8.468;2023-03-21T00:51:19;4.87;;;3.30;;
11111;SDS011;5609;49.466;8.468;2023-03-21T00:53:50;4.83;;;2.90;;
11111;SDS011;5609;49.466;8.468;2023-03-21T00:56:17;4.50;;;3.03;;
11111;SDS011;5609;49.466;8.468;2023-03-21T00:58:44;3.50;;;3.00;;
11111;SDS011;5609;49.466;8.468;2023-03-21T01:01:12;4.90;;;3.07;;
11111;SDS011;5609;49.466;8.468;2023-03-21T01:03:39;4.00;;;2.90;;
11111;SDS011;5609;49.466;8.468;2023-03-21T01:06:14;3.80;;;3.20;;
11111;SDS011;5609;49.466;8.468;2023-03-21T01:08:43;5.20;;;2.93;;
11111;SDS011;5609;49.466;8.468;2023-03-21T01:11:12;5.10;;;3.10;;
11111;SDS011;5609;49.466;8.468;2023-03-21T01:13:41;5.17;;;3.10;;
11111;SDS011;5609;49.466;8.468;2023-03-21T01:16:08;3.93;;;3.07;;
11111;SDS011;5609;49.466;8.468;2023-03-21T01:18:37;6.50;;;3.20;;
11111;SDS011;5609;49.466;8.468;2023-03-21T01:21:06;4.47;;;3.00;;
11111;SDS011;5609;49.466;8.468;2023-03-21T01:23:35;4.90;;;3.10;;
11111;SDS011;5609;49.466;8.468;2023-03-21T01:26:01;4.93;;;3.20;;
11111;SDS011;5609;49.466;8.468;2023-03-21T01:28:29;4.70;;;3.10;;
11111;SDS011;5609;49.466;8.468;2023-03-21T01:30:56;5.37;;;3.50;;
11111;SDS011;5609;49.466;8.468;2023-03-21T01:33:25;4.80;;;3.30;;
11111;SDS011;5609;49.466;8.468;2023-03-21T01:35:54;4.30;;;3.37;;
11111;SDS011;5609;49.466;8.468;2023-03-21T01:38:21;3.87;;;3.20;;
11111;SDS011;5609;49.466;8.468;2023-03-21T01:40:47;3.90;;;3.20;;
11111;SDS011;5609;49.466;8.468;2023-03-21T01:43:19;3.93;;;3.30;;
11111;SDS011;5609;49.466;8.468;2023-03-21T01:48:53;4.20;;;3.33;;
11111;SDS011;5609;49.466;8.468;2023-03-21T01:51:25;5.57;;;3.30;;
11111;SDS011;5609;49.466;8.468;2023-03-21T01:53:52;4.10;;;3.37;;
11111;SDS011;5609;49.466;8.468;2023-03-21T01:56:21;4.67;;;3.20;;
11111;SDS011;5609;49.466;8.468;2023-03-21T01:58:51;5.67;;;3.40;;
11111;SDS011;5609;49.466;8.468;2023-03-21T02:01:21;5.17;;;3.90;;
11111;SDS011;5609;49.466;8.468;2023-03-21T02:03:48;4.17;;;3.37;;
11111;SDS011;5609;49.466;8.468;2023-03-21T02:06:18;5.87;;;3.40;;
11111;SDS011;5609;49.466;8.468;2023-03-21T02:08:57;4.20;;;3.40;;
11111;SDS011;5609;49.466;8.468;2023-03-21T02:11:26;4.50;;;3.60;;
11111;SDS011;5609;49.466;8.468;2023-03-21T02:13:53;4.87;;;3.57;;
11111;SDS011;5609;49.466;8.468;2023-03-21T02:16:24;5.20;;;3.47;;
11111;SDS011;5609;49.466;8.468;2023-03-21T02:18:58;4.67;;;3.37;;
11111;SDS011;5609;49.466;8.468;2023-03-21T02:21:52;6.23;;;3.60;;
11111;SDS011;5609;49.466;8.468;2023-03-21T02:27:47;5.97;;;3.47;;
11111;SDS011;5609;49.466;8.468;2023-03-21T02:30:33;4.33;;;3.63;;
11111;SDS011;5609;49.466;8.468;2023-03-21T02:33:32;4.37;;;3.70;;
11111;SDS011;5609;49.466;8.468;2023-03-21T02:36:15;4.30;;;3.43;;
11111;SDS011;5609;49.466;8.468;2023-03-21T02:38:53;5.07;;;3.87;;
11111;SDS011;5609;49.466;8.468;2023-03-21T02:41:24;4.70;;;3.73;;
11111;SDS011;5609;49.466;8.468;2023-03-21T02:44:02;5.20;;;3.67;;
11111;SDS011;5609;49.466;8.468;2023-03-21T02:46:37;4.30;;;3.47;;
11111;SDS011;5609;49.466;8.468;2023-03-21T02:49:10;5.17;;;3.87;;
11111;SDS011;5609;49.466;8.468;2023-03-21T02:51:42;8.47;;;3.63;;
11111;SDS011;5609;49.466;8.468;2023-03-21T02:54:14;4.50;;;3.73;;
11111;SDS011;5609;49.466;8.468;2023-03-21T02:56:43;6.07;;;3.87;;
11111;SDS011;5609;49.466;8.468;2023-03-21T02:59:11;5.37;;;3.63;;
11111;SDS011;5609;49.466;8.468;2023-03-21T03:01:39;6.17;;;3.80;;
11111;SDS011;5609;49.466;8.468;2023-03-21T03:04:16;4.30;;;3.70;;
11111;SDS011;5609;49.466;8.468;2023-03-21T03:06:52;5.20;;;3.70;;
11111;SDS011;5609;49.466;8.468;2023-03-21T03:09:34;6.17;;;3.70;;
11111;SDS011;5609;49.466;8.468;2023-03-21T03:12:10;5.10;;;3.80;;
11111;SDS011;5609;49.466;8.468;2023-03-21T03:14:45;4.10;;;3.50;;
11111;SDS011;5609;49.466;8.468;2023-03-21T03:17:20;4.03;;;3.50;;
11111;SDS011;5609;49.466;8.468;2023-03-21T03:19:55;5.83;;;3.73;;
11111;SDS011;5609;49.466;8.468;2023-03-21T03:22:40;5.67;;;3.50;;
11111;SDS011;5609;49.466;8.468;2023-03-21T03:25:15;5.43;;;3.77;;
11111;SDS011;5609;49.466;8.468;2023-03-21T03:27:46;4.63;;;3.63;;
11111;SDS011;5609;49.466;8.468;2023-03-21T03:30:15;5.63;;;3.83;;
11111;SDS011;5609;49.466;8.468;2023-03-21T03:32:44;7.53;;;3.97;;
11111;SDS011;5609;49.466;8.468;2023-03-21T03:35:14;4.83;;;3.80;;
11111;SDS011;5609;49.466;8.468;2023-03-21T03:37:43;5.30;;;3.70;;
11111;SDS011;5609;49.466;8.468;2023-03-21T03:40:15;5.67;;;3.90;;
11111;SDS011;5609;49.466;8.468;2023-03-21T03:42:50;5.37;;;3.37;;
11111;SDS011;5609;49.466;8.468;2023-03-21T03:45:18;4.70;;;3.60;;
11111;SDS011;5609;49.466;8.468;2023-03-21T03:47:46;5.93;;;3.63;;
11111;SDS011;5609;49.466;8.468;2023-03-21T03:50:19;5.57;;;3.73;;
11111;SDS011;5609;49.466;8.468;2023-03-21T03:52:52;5.93;;;4.03;;
11111;SDS011;5609;49.466;8.468;2023-03-21T03:55:25;3.77;;;3.40;;
11111;SDS011;5609;49.466;8.468;2023-03-21T03:57:58;5.80;;;3.57;;
11111;SDS011;5609;49.466;8.468;2023-03-21T04:00:25;5.33;;;3.67;;
11111;SDS011;5609;49.466;8.468;2023-03-21T04:02:56;5.17;;;3.40;;
11111;SDS011;5609;49.466;8.468;2023-03-21T04:05:24;4.53;;;3.50;;
11111;SDS011;5609;49.466;8.468;2023-03-21T04:07:50;5.00;;;3.67;;
11111;SDS011;5609;49.466;8.468;2023-03-21T04:10:17;4.63;;;3.20;;
11111;SDS011;5609;49.466;8.468;2023-03-21T04:12:47;3.90;;;3.50;;
11111;SDS011;5609;49.466;8.468;2023-03-21T04:15:14;5.77;;;3.63;;
11111;SDS011;5609;49.466;8.468;2023-03-21T04:17:41;5.53;;;3.73;;
11111;SDS011;5609;49.466;8.468;2023-03-21T04:20:09;6.53;;;3.90;;
11111;SDS011;5609;49.466;8.468;2023-03-21T04:22:36;5.30;;;3.67;;
11111;SDS011;5609;49.466;8.468;2023-03-21T04:25:03;6.00;;;3.70;;
11111;SDS011;5609;49.466;8.468;2023-03-21T04:27:31;4.23;;;3.60;;
11111;SDS011;5609;49.466;8.468;2023-03-21T04:29:59;6.33;;;3.87;;
11111;SDS011;5609;49.466;8.468;2023-03-21T04:32:26;5.13;;;3.80;;
11111;SDS011;5609;49.466;8.468;2023-03-21T04:34:53;5.47;;;4.00;;
11111;SDS011;5609;49.466;8.468;2023-03-21T04:37:20;4.53;;;4.00;;
11111;SDS011;5609;49.466;8.468;2023-03-21T04:39:48;5.77;;;3.97;;
11111;SDS011;5609;49.466;8.468;2023-03-21T04:42:16;4.93;;;4.00;;
11111;SDS011;5609;49.466;8.468;2023-03-21T04:44:43;4.67;;;3.87;;
11111;SDS011;5609;49.466;8.468;2023-03-21T04:47:11;5.80;;;3.83;;
11111;SDS011;5609;49.466;8.468;2023-03-21T04:49:39;6.30;;;4.00;;
11111;SDS011;5609;49.466;8.468;2023-03-21T04:52:06;6.17;;;3.80;;
11111;SDS011;5609;49.466;8.468;2023-03-21T04:54:33;5.00;;;3.67;;
11111;SDS011;5609;49.466;8.468;2023-03-21T04:57:00;5.37;;;3.80;;
11111;SDS011;5609;49.466;8.468;2023-03-21T04:59:28;5.53;;;3.90;;
11111;SDS011;5609;49.466;8.468;2023-03-21T05:01:55;5.37;;;3.50;;
11111;SDS011;5609;49.466;8.468;2023-03-21T05:04:24;5.53;;;3.60;;
11111;SDS011;5609;49.466;8.468;2023-03-21T05:06:51;5.43;;;3.73;;
11111;SDS011;5609;49.466;8.468;2023-03-21T05:09:18;5.53;;;4.30;;
11111;SDS011;5609;49.466;8.468;2023-03-21T05:11:46;4.77;;;3.90;;
11111;SDS011;5609;49.466;8.468;2023-03-21T05:14:14;4.43;;;3.70;;
11111;SDS011;5609;49.466;8.468;2023-03-21T05:16:43;5.37;;;3.90;;
11111;SDS011;5609;49.466;8.468;2023-03-21T05:19:12;8.10;;;4.20;;
11111;SDS011;5609;49.466;8.468;2023-03-21T05:21:40;4.47;;;3.50;;
11111;SDS011;5609;49.466;8.468;2023-03-21T05:24:09;6.33;;;4.23;;
11111;SDS011;5609;49.466;8.468;2023-03-21T05:26:39;4.23;;;3.73;;
11111;SDS011;5609;49.466;8.468;2023-03-21T05:29:06;6.47;;;3.60;;
11111;SDS011;5609;49.466;8.468;2023-03-21T05:31:34;6.83;;;4.10;;
11111;SDS011;5609;49.466;8.468;2023-03-21T05:34:00;5.90;;;3.90;;
11111;SDS011;5609;49.466;8.468;2023-03-21T05:36:27;5.47;;;3.97;;
11111;SDS011;5609;49.466;8.468;2023-03-21T05:38:55;5.03;;;3.50;;
11111;SDS011;5609;49.466;8.468;2023-03-21T05:41:22;6.50;;;3.90;;
11111;SDS011;5609;49.466;8.468;2023-03-21T05:43:49;4.57;;;3.70;;
11111;SDS011;5609;49.466;8.468;2023-03-21T05:46:15;5.83;;;3.90;;
11111;SDS011;5609;49.466;8.468;2023-03-21T05:48:42;5.23;;;3.57;;
11111;SDS011;5609;49.466;8.468;2023-03-21T05:51:09;4.90;;;3.80;;
11111;SDS011;5609;49.466;8.468;2023-03-21T05:53:36;6.00;;;4.13;;
11111;SDS011;5609;49.466;8.468;2023-03-21T05:56:04;6.47;;;4.17;;
11111;SDS011;5609;49.466;8.468;2023-03-21T05:58:32;5.67;;;4.03;;
11111;SDS011;5609;49.466;8.468;2023-03-21T06:00:59;6.30;;;4.33;;
11111;SDS011;5609;49.466;8.468;2023-03-21T06:03:25;5.40;;;4.27;;
11111;SDS011;5609;49.466;8.468;2023-03-21T06:05:52;6.20;;;4.13;;
11111;SDS011;5609;49.466;8.468;2023-03-21T06:08:19;5.03;;;4.00;;
11111;SDS011;5609;49.466;8.468;2023-03-21T06:10:46;5.90;;;4.10;;
11111;SDS011;5609;49.466;8.468;2023-03-21T06:13:14;6.50;;;4.33;;
11111;SDS011;5609;49.466;8.468;2023-03-21T06:15:41;3.93;;;2.37;;
11111;SDS011;5609;49.466;8.468;2023-03-21T06:18:07;5.53;;;1.80;;
11111;SDS011;5609;49.466;8.468;2023-03-21T06:20:34;3.10;;;1.37;;
11111;SDS011;5609;49.466;8.468;2023-03-21T06:23:01;4.53;;;1.90;;
11111;SDS011;5609;49.466;8.468;2023-03-21T06:25:28;4.13;;;3.10;;
11111;SDS011;5609;49.466;8.468;2023-03-21T06:27:54;3.70;;;1.83;;
11111;SDS011;5609;49.466;8.468;2023-03-21T06:30:23;3.43;;;1.90;;
11111;SDS011;5609;49.466;8.468;2023-03-21T06:32:50;3.80;;;2.10;;
11111;SDS011;5609;49.466;8.468;2023-03-21T06:35:17;6.00;;;3.60;;
11111;SDS011;5609;49.466;8.468;2023-03-21T06:37:43;4.17;;;3.23;;
11111;SDS011;5609;49.466;8.468;2023-03-21T06:40:13;3.10;;;2.30;;
11111;SDS011;5609;49.466;8.468;2023-03-21T06:42:40;5.87;;;3.27;;
11111;SDS011;5609;49.466;8.468;2023-03-21T06:45:07;2.67;;;2.23;;
11111;SDS011;5609;49.466;8.468;2023-03-21T06:47:35;5.57;;;2.30;;
11111;SDS011;5609;49.466;8.468;2023-03-21T06:50:02;5.43;;;3.20;;
11111;SDS011;5609;49.466;8.468;2023-03-21T06:52:31;4.13;;;2.60;;
11111;SDS011;5609;49.466;8.468;2023-03-21T06:54:57;3.47;;;2.57;;
11111;SDS011;5609;49.466;8.468;2023-03-21T06:57:24;4.40;;;3.10;;
11111;SDS011;5609;49.466;8.468;2023-03-21T06:59:51;4.47;;;3.00;;
11111;SDS011;5609;49.466;8.468;2023-03-21T07:02:18;4.97;;;3.70;;
11111;SDS011;5609;49.466;8.468;2023-03-21T07:04:46;3.23;;;2.10;;
11111;SDS011;5609;49.466;8.468;2023-03-21T07:07:13;5.83;;;3.40;;
11111;SDS011;5609;49.466;8.468;2023-03-21T07:09:40;3.83;;;2.40;;
11111;SDS011;5609;49.466;8.468;2023-03-21T07:12:06;3.40;;;2.93;;
11111;SDS011;5609;49.466;8.468;2023-03-21T07:14:34;3.80;;;3.30;;
11111;SDS011;5609;49.466;8.468;2023-03-21T07:17:00;4.80;;;2.73;;
11111;SDS011;5609;49.466;8.468;2023-03-21T07:19:27;5.90;;;3.37;;
11111;SDS011;5609;49.466;8.468;2023-03-21T07:21:56;4.27;;;3.30;;
11111;SDS011;5609;49.466;8.468;2023-03-21T07:24:24;3.10;;;2.80;;
11111;SDS011;5609;49.466;8.468;2023-03-21T07:26:51;4.07;;;3.07;;
11111;SDS011;5609;49.466;8.468;2023-03-21T07:29:18;3.43;;;2.70;;
11111;SDS011;5609;49.466;8.468;2023-03-21T07:31:47;4.47;;;4.07;;
11111;SDS011;5609;49.466;8.468;2023-03-21T07:34:14;4.00;;;2.23;;
11111;SDS011;5609;49.466;8.468;2023-03-21T07:36:41;3.87;;;2.50;;
11111;SDS011;5609;49.466;8.468;2023-03-21T07:39:10;5.80;;;3.17;;
11111;SDS011;5609;49.466;8.468;2023-03-21T07:41:36;5.07;;;3.17;;
11111;SDS011;5609;49.466;8.468;2023-03-21T07:44:03;4.57;;;3.70;;
11111;SDS011;5609;49.466;8.468;2023-03-21T07:46:30;5.80;;;3.30;;
11111;SDS011;5609;49.466;8.468;2023-03-21T07:48:57;4.93;;;2.97;;
11111;SDS011;5609;49.466;8.468;2023-03-21T07:51:23;4.10;;;2.33;;
11111;SDS011;5609;49.466;8.468;2023-03-21T07:53:50;4.83;;;3.33;;
11111;SDS011;5609;49.466;8.468;2023-03-21T07:56:18;4.33;;;2.80;;
11111;SDS011;5609;49.466;8.468;2023-03-21T07:58:45;4.50;;;3.20;;
11111;SDS011;5609;49.466;8.468;2023-03-21T08:01:12;5.37;;;3.00;;
11111;SDS011;5609;49.466;8.468;2023-03-21T08:03:39;6.07;;;4.23;;
11111;SDS011;5609;49.466;8.468;2023-03-21T08:06:07;3.90;;;3.07;;
11111;SDS011;5609;49.466;8.468;2023-03-21T08:08:35;6.07;;;4.33;;
11111;SDS011;5609;49.466;8.468;2023-03-21T08:11:02;5.40;;;3.60;;
11111;SDS011;5609;49.466;8.468;2023-03-21T08:13:32;7.03;;;3.90;;
11111;SDS011;5609;49.466;8.468;2023-03-21T08:15:58;4.07;;;3.63;;
11111;SDS011;5609;49.466;8.468;2023-03-21T08:18:25;7.77;;;3.77;;
11111;SDS011;5609;49.466;8.468;2023-03-21T08:20:52;5.67;;;3.70;;
11111;SDS011;5609;49.466;8.468;2023-03-21T08:23:20;5.40;;;4.07;;
11111;SDS011;5609;49.466;8.468;2023-03-21T08:25:49;3.13;;;2.50;;
11111;SDS011;5609;49.466;8.468;2023-03-21T08:28:17;4.27;;;2.90;;
11111;SDS011;5609;49.466;8.468;2023-03-21T08:30:45;3.70;;;2.87;;
11111;SDS011;5609;49.466;8.468;2023-03-21T08:33:12;3.83;;;3.30;;
11111;SDS011;5609;49.466;8.468;2023-03-21T08:35:39;4.33;;;3.20;;
11111;SDS011;5609;49.466;8.468;2023-03-21T08:38:06;5.37;;;3.20;;
11111;SDS011;5609;49.466;8.468;2023-03-21T08:40:33;3.73;;;2.93;;
11111;SDS011;5609;49.466;8.468;2023-03-21T08:43:00;4.00;;;3.57;;
11111;SDS011;5609;49.466;8.468;2023-03-21T08:45:27;4.67;;;3.47;;
11111;SDS011;5609;49.466;8.468;2023-03-21T08:47:55;7.30;;;4.23;;
11111;SDS011;5609;49.466;8.468;2023-03-21T08:50:24;4.93;;;3.67;;
11111;SDS011;5609;49.466;8.468;2023-03-21T08:52:53;4.17;;;3.77;;
11111;SDS011;5609;49.466;8.468;2023-03-21T08:55:20;5.20;;;3.73;;
11111;SDS011;5609;49.466;8.468;2023-03-21T08:57:46;5.70;;;4.10;;
11111;SDS011;5609;49.466;8.468;2023-03-21T09:00:14;4.77;;;3.73;;
11111;SDS011;5609;49.466;8.468;2023-03-21T09:02:43;3.93;;;3.30;;
11111;SDS011;5609;49.466;8.468;2023-03-21T09:05:12;6.00;;;3.47;;
11111;SDS011;5609;49.466;8.468;2023-03-21T09:07:40;3.00;;;2.67;;
11111;SDS011;5609;49.466;8.468;2023-03-21T09:10:10;4.83;;;3.23;;
11111;SDS011;5609;49.466;8.468;2023-03-21T09:12:38;4.60;;;3.70;;
11111;SDS011;5609;49.466;8.468;2023-03-21T09:15:05;4.70;;;3.70;;
11111;SDS011;5609;49.466;8.468;2023-03-21T09:17:33;5.00;;;4.00;;
11111;SDS011;5609;49.466;8.468;2023-03-21T09:20:00;5.07;;;3.73;;
11111;SDS011;5609;49.466;8.468;2023-03-21T09:22:37;6.57;;;3.97;;
11111;SDS011;5609;49.466;8.468;2023-03-21T09:25:04;4.27;;;3.63;;
11111;SDS011;5609;49.466;8.468;2023-03-21T09:27:35;5.53;;;4.00;;
11111;SDS011;5609;49.466;8.468;2023-03-21T09:30:02;6.13;;;3.80;;
11111;SDS011;5609;49.466;8.468;2023-03-21T09:32:31;4.07;;;3.10;;
11111;SDS011;5609;49.466;8.468;2023-03-21T09:34:58;4.07;;;3.67;;
11111;SDS011;5609;49.466;8.468;2023-03-21T09:37:24;4.27;;;3.30;;
11111;SDS011;5609;49.466;8.468;2023-03-21T09:39:53;3.60;;;3.30;;
11111;SDS011;5609;49.466;8.468;2023-03-21T09:42:27;4.40;;;3.30;;
11111;SDS011;5609;49.466;8.468;2023-03-21T09:45:05;5.33;;;3.60;;
11111;SDS011;5609;49.466;8.468;2023-03-21T09:47:38;3.23;;;2.70;;
11111;SDS011;5609;49.466;8.468;2023-03-21T09:50:14;5.27;;;3.53;;
11111;SDS011;5609;49.466;8.468;2023-03-21T09:52:45;3.43;;;2.97;;
11111;SDS011;5609;49.466;8.468;2023-03-21T09:55:17;4.13;;;2.57;;
11111;SDS011;5609;49.466;8.468;2023-03-21T09:57:48;3.60;;;3.30;;
11111;SDS011;5609;49.466;8.468;2023-03-21T10:00:23;4.17;;;3.00;;
11111;SDS011;5609;49.466;8.468;2023-03-21T10:02:56;3.97;;;3.43;;
11111;SDS011;5609;49.466;8.468;2023-03-21T10:05:27;3.93;;;3.00;;
11111;SDS011;5609;49.466;8.468;2023-03-21T10:07:57;3.63;;;2.60;;
11111;SDS011;5609;49.466;8.468;2023-03-21T10:10:31;4.30;;;2.90;;
11111;SDS011;5609;49.466;8.468;2023-03-21T10:13:01;3.57;;;3.23;;
11111;SDS011;5609;49.466;8.468;2023-03-21T10:15:28;3.83;;;3.40;;
11111;SDS011;5609;49.466;8.468;2023-03-21T10:17:56;4.10;;;3.70;;
11111;SDS011;5609;49.466;8.468;2023-03-21T10:20:26;4.20;;;3.03;;
11111;SDS011;5609;49.466;8.468;2023-03-21T10:22:57;5.17;;;3.07;;
11111;SDS011;5609;49.466;8.468;2023-03-21T10:25:30;3.30;;;2.83;;
11111;SDS011;5609;49.466;8.468;2023-03-21T10:28:01;3.27;;;2.97;;
11111;SDS011;5609;49.466;8.468;2023-03-21T10:30:37;3.63;;;3.23;;
11111;SDS011;5609;49.466;8.468;2023-03-21T10:33:07;3.73;;;2.90;;
11111;SDS011;5609;49.466;8.468;2023-03-21T10:35:38;5.60;;;3.10;;
11111;SDS011;5609;49.466;8.468;2023-03-21T10:38:10;4.17;;;3.37;;
11111;SDS011;5609;49.466;8.468;2023-03-21T10:40:42;4.53;;;3.77;;
11111;SDS011;5609;49.466;8.468;2023-03-21T10:43:14;3.83;;;3.50;;
11111;SDS011;5609;49.466;8.468;2023-03-21T10:45:44;3.27;;;2.97;;
11111;SDS011;5609;49.466;8.468;2023-03-21T10:48:12;4.23;;;3.50;;
11111;SDS011;5609;49.466;8.468;2023-03-21T10:50:39;3.43;;;3.13;;
11111;SDS011;5609;49.466;8.468;2023-03-21T10:53:11;4.03;;;3.50;;
11111;SDS011;5609;49.466;8.468;2023-03-21T10:55:41;2.90;;;2.60;;
11111;SDS011;5609;49.466;8.468;2023-03-21T10:58:13;3.37;;;2.87;;
11111;SDS011;5609;49.466;8.468;2023-03-21T11:00:43;3.23;;;2.93;;
11111;SDS011;5609;49.466;8.468;2023-03-21T11:03:17;5.00;;;3.37;;
11111;SDS011;5609;49.466;8.468;2023-03-21T11:05:48;4.00;;;3.57;;
11111;SDS011;5609;49.466;8.468;2023-03-21T11:08:20;4.57;;;3.43;;
11111;SDS011;5609;49.466;8.468;2023-03-21T11:10:51;4.20;;;3.63;;
11111;SDS011;5609;49.466;8.468;2023-03-21T11:13:23;3.40;;;3.10;;
11111;SDS011;5609;49.466;8.468;2023-03-21T11:15:53;3.87;;;3.57;;
11111;SDS011;5609;49.466;8.468;2023-03-21T11:18:22;4.90;;;3.17;;
11111;SDS011;5609;49.466;8.468;2023-03-21T11:20:51;3.80;;;2.80;;
11111;SDS011;5609;49.466;8.468;2023-03-21T11:23:19;3.30;;;3.00;;
11111;SDS011;5609;49.466;8.468;2023-03-21T11:25:51;4.27;;;2.43;;
11111;SDS011;5609;49.466;8.468;2023-03-21T11:28:19;6.43;;;3.70;;
11111;SDS011;5609;49.466;8.468;2023-03-21T11:30:48;3.37;;;2.90;;
11111;SDS011;5609;49.466;8.468;2023-03-21T11:33:20;4.00;;;2.77;;
11111;SDS011;5609;49.466;8.468;2023-03-21T11:36:00;3.40;;;3.10;;
11111;SDS011;5609;49.466;8.468;2023-03-21T11:38:30;3.53;;;2.80;;
11111;SDS011;5609;49.466;8.468;2023-03-21T11:41:02;3.77;;;2.70;;
11111;SDS011;5609;49.466;8.468;2023-03-21T11:43:30;4.43;;;3.20;;
11111;SDS011;5609;49.466;8.468;2023-03-21T11:46:04;3.47;;;3.17;;
11111;SDS011;5609;49.466;8.468;2023-03-21T11:48:32;3.30;;;3.00;;
11111;SDS011;5609;49.466;8.468;2023-03-21T11:51:04;4.17;;;2.90;;
11111;SDS011;5609;49.466;8.468;2023-03-21T11:53:41;5.20;;;3.50;;
11111;SDS011;5609;49.466;8.468;2023-03-21T11:56:17;4.40;;;2.50;;
11111;SDS011;5609;49.466;8.468;2023-03-21T11:58:52;3.67;;;3.20;;
11111;SDS011;5609;49.466;8.468;2023-03-21T12:01:51;4.73;;;3.10;;
11111;SDS011;5609;49.466;8.468;2023-03-21T12:04:31;2.90;;;2.37;;
11111;SDS011;5609;49.466;8.468;2023-03-21T12:07:08;3.90;;;3.10;;
11111;SDS011;5609;49.466;8.468;2023-03-21T12:09:48;2.97;;;2.53;;
11111;SDS011;5609;49.466;8.468;2023-03-21T12:12:29;3.53;;;3.20;;
11111;SDS011;5609;49.466;8.468;2023-03-21T12:15:04;3.57;;;2.90;;
11111;SDS011;5609;49.466;8.468;2023-03-21T12:17:38;2.50;;;2.30;;
11111;SDS011;5609;49.466;8.468;2023-03-21T12:20:20;2.53;;;2.20;;
11111;SDS011;5609;49.466;8.468;2023-03-21T12:22:58;3.27;;;2.97;;
11111;SDS011;5609;49.466;8.468;2023-03-21T12:25:45;3.90;;;3.20;;
11111;SDS011;5609;49.466;8.468;2023-03-21T12:28:25;2.67;;;2.10;;
11111;SDS011;5609;49.466;8.468;2023-03-21T12:31:00;4.50;;;2.93;;
11111;SDS011;5609;49.466;8.468;2023-03-21T12:36:29;2.77;;;2.40;;
11111;SDS011;5609;49.466;8.468;2023-03-21T12:39:09;3.03;;;2.70;;
11111;SDS011;5609;49.466;8.468;2023-03-21T12:41:49;2.97;;;2.70;;
11111;SDS011;5609;49.466;8.468;2023-03-21T12:44:25;3.37;;;2.53;;
11111;SDS011;5609;49.466;8.468;2023-03-21T12:46:56;4.03;;;2.60;;
11111;SDS011;5609;49.466;8.468;2023-03-21T12:49:28;2.90;;;2.37;;
11111;SDS011;5609;49.466;8.468;2023-03-21T12:51:58;5.37;;;2.63;;
11111;SDS011;5609;49.466;8.468;2023-03-21T12:54:30;2.70;;;2.03;;
11111;SDS011;5609;49.466;8.468;2023-03-21T12:57:03;2.90;;;2.60;;
11111;SDS011;5609;49.466;8.468;2023-03-21T12:59:37;3.33;;;2.10;;
11111;SDS011;5609;49.466;8.468;2023-03-21T13:02:13;2.97;;;2.30;;
11111;SDS011;5609;49.466;8.468;2023-03-21T13:04:46;6.17;;;2.13;;
11111;SDS011;5609;49.466;8.468;2023-03-21T13:07:21;3.70;;;2.60;;
11111;SDS011;5609;49.466;8.468;2023-03-21T13:09:50;2.90;;;2.43;;
11111;SDS011;5609;49.466;8.468;2023-03-21T13:12:33;4.47;;;2.60;;
11111;SDS011;5609;49.466;8.468;2023-03-21T13:15:21;3.83;;;2.60;;
11111;SDS011;5609;49.466;8.468;2023-03-21T13:18:09;4.30;;;2.30;;
11111;SDS011;5609;49.466;8.468;2023-03-21T13:20:42;3.93;;;2.60;;
11111;SDS011;5609;49.466;8.468;2023-03-21T13:23:12;4.67;;;2.70;;
11111;SDS011;5609;49.466;8.468;2023-03-21T13:25:40;6.50;;;3.00;;
11111;SDS011;5609;49.466;8.468;2023-03-21T13:28:15;5.07;;;2.63;;
11111;SDS011;5609;49.466;8.468;2023-03-21T13:30:46;5.77;;;2.60;;
11111;SDS011;5609;49.466;8.468;2023-03-21T13:33:14;4.53;;;2.97;;
11111;SDS011;5609;49.466;8.468;2023-03-21T13:35:53;6.53;;;3.50;;
11111;SDS011;5609;49.466;8.468;2023-03-21T13:38:29;6.17;;;3.03;;
11111;SDS011;5609;49.466;8.468;2023-03-21T13:40:58;7.87;;;3.47;;
11111;SDS011;5609;49.466;8.468;2023-03-21T13:43:30;5.67;;;3.50;;
11111;SDS011;5609;49.466;8.468;2023-03-21T13:46:08;9.83;;;3.50;;
11111;SDS011;5609;49.466;8.468;2023-03-21T13:48:43;6.10;;;3.40;;
11111;SDS011;5609;49.466;8.468;2023-03-21T13:51:36;6.97;;;3.60;;
11111;SDS011;5609;49.466;8.468;2023-03-21T13:54:15;7.60;;;4.07;;
11111;SDS011;5609;49.466;8.468;2023-03-21T13:56:47;8.80;;;4.33;;
11111;SDS011;5609;49.466;8.468;2023-03-21T13:59:16;6.83;;;3.37;;
11111;SDS011;5609;49.466;8.468;2023-03-21T14:01:57;5.43;;;3.70;;
11111;SDS011;5609;49.466;8.468;2023-03-21T14:04:26;5.63;;;3.70;;
11111;SDS011;5609;49.466;8.468;2023-03-21T14:06:57;7.83;;;4.23;;
11111;SDS011;5609;49.466;8.468;2023-03-21T14:09:27;9.50;;;4.50;;
11111;SDS011;5609;49.466;8.468;2023-03-21T14:11:58;6.70;;;4.07;;
11111;SDS011;5609;49.466;8.468;2023-03-21T14:14:28;7.93;;;3.90;;
11111;SDS011;5609;49.466;8.468;2023-03-21T14:17:00;8.53;;;4.30;;
11111;SDS011;5609;49.466;8.468;2023-03-21T14:19:29;8.27;;;4.40;;
11111;SDS011;5609;49.466;8.468;2023-03-21T14:21:57;6.60;;;3.67;;
11111;SDS011;5609;49.466;8.468;2023-03-21T14:24:24;8.07;;;3.80;;
11111;SDS011;5609;49.466;8.468;2023-03-21T14:26:52;9.70;;;4.17;;
11111;SDS011;5609;49.466;8.468;2023-03-21T14:29:22;5.50;;;3.73;;
11111;SDS011;5609;49.466;8.468;2023-03-21T14:31:51;6.53;;;3.60;;
11111;SDS011;5609;49.466;8.468;2023-03-21T14:34:21;11.17;;;4.50;;
11111;SDS011;5609;49.466;8.468;2023-03-21T14:36:50;4.40;;;3.10;;
11111;SDS011;5609;49.466;8.468;2023-03-21T14:39:17;7.67;;;3.90;;
11111;SDS011;5609;49.466;8.468;2023-03-21T14:41:48;6.23;;;3.57;;
11111;SDS011;5609;49.466;8.468;2023-03-21T14:44:21;9.60;;;3.60;;
11111;SDS011;5609;49.466;8.468;2023-03-21T14:46:52;4.30;;;3.13;;
11111;SDS011;5609;49.466;8.468;2023-03-21T14:49:26;7.13;;;3.37;;
11111;SDS011;5609;49.466;8.468;2023-03-21T14:51:55;6.40;;;3.20;;
11111;SDS011;5609;49.466;8.468;2023-03-21T14:54:24;5.23;;;3.37;;
11111;SDS011;5609;49.466;8.468;2023-03-21T14:56:52;6.63;;;3.50;;
11111;SDS011;5609;49.466;8.468;2023-03-21T14:59:24;4.43;;;3.00;;
11111;SDS011;5609;49.466;8.468;2023-03-21T15:01:55;8.83;;;3.10;;
11111;SDS011;5609;49.466;8.468;2023-03-21T15:04:23;6.10;;;2.90;;
11111;SDS011;5609;49.466;8.468;2023-03-21T15:06:53;4.77;;;3.30;;
11111;SDS011;5609;49.466;8.468;2023-03-21T15:09:22;7.80;;;3.70;;
11111;SDS011;5609;49.466;8.468;2023-03-21T15:11:52;5.00;;;3.40;;
11111;SDS011;5609;49.466;8.468;2023-03-21T15:14:22;7.10;;;3.20;;
11111;SDS011;5609;49.466;8.468;2023-03-21T15:16:51;3.97;;;3.10;;
11111;SDS011;5609;49.466;8.468;2023-03-21T15:19:22;5.73;;;3.00;;
11111;SDS011;5609;49.466;8.468;2023-03-21T15:21:54;5.27;;;3.00;;
11111;SDS011;5609;49.466;8.468;2023-03-21T15:24:24;3.83;;;3.10;;
11111;SDS011;5609;49.466;8.468;2023-03-21T15:26:56;4.97;;;3.37;;
11111;SDS011;5609;49.466;8.468;2023-03-21T15:29:26;6.03;;;3.13;;